sensor_id;sensor_type;location;lat;lon;timestamp;temperature;humidity
66928;DHT22;59882;45.624;11.698;2022-10-19T00:00:59;16.40;76.20
66928;DHT22;59882;45.624;11.698;2022-10-19T00:03:24;16.40;76.50
66928;DHT22;59882;45.624;11.698;2022-10-19T00:05:50;16.40;76.30
66928;DHT22;59882;45.624;11.698;2022-10-19T00:08:16;16.40;76.30
66928;DHT22;59882;45.624;11.698;2022-10-19T00:10:41;16.40;76.60
66928;DHT22;59882;45.624;11.698;2022-10-19T00:13:07;16.40;76.50
66928;DHT22;59882;45.624;11.698;2022-10-19T00:15:32;16.40;76.40
66928;DHT22;59882;45.624;11.698;2022-10-19T00:17:58;16.40;76.40
66928;DHT22;59882;45.624;11.698;2022-10-19T00:20:24;16.40;76.40
66928;DHT22;59882;45.624;11.698;2022-10-19T00:22:49;16.40;76.40
66928;DHT22;59882;45.624;11.698;2022-10-19T00:25:15;16.40;76.50
66928;DHT22;59882;45.624;11.698;2022-10-19T00:27:41;16.40;76.60
66928;DHT22;59882;45.624;11.698;2022-10-19T00:30:07;16.40;76.20
66928;DHT22;59882;45.624;11.698;2022-10-19T00:32:32;16.40;76.20
66928;DHT22;59882;45.624;11.698;2022-10-19T00:34:58;16.30;76.20
66928;DHT22;59882;45.624;11.698;2022-10-19T00:37:24;16.30;76.30
66928;DHT22;59882;45.624;11.698;2022-10-19T00:39:50;16.30;76.00
66928;DHT22;59882;45.624;11.698;2022-10-19T00:42:15;16.30;76.30
66928;DHT22;59882;45.624;11.698;2022-10-19T00:47:12;16.30;75.90
66928;DHT22;59882;45.624;11.698;2022-10-19T00:49:41;16.20;75.90
66928;DHT22;59882;45.624;11.698;2022-10-19T00:52:13;16.20;75.90
66928;DHT22;59882;45.624;11.698;2022-10-19T00:54:40;16.30;75.80
66928;DHT22;59882;45.624;11.698;2022-10-19T00:57:08;16.20;75.60
66928;DHT22;59882;45.624;11.698;2022-10-19T00:59:34;16.20;75.60
66928;DHT22;59882;45.624;11.698;2022-10-19T01:02:03;16.20;75.80
66928;DHT22;59882;45.624;11.698;2022-10-19T01:04:30;16.20;75.70
66928;DHT22;59882;45.624;11.698;2022-10-19T01:06:57;16.20;75.60
66928;DHT22;59882;45.624;11.698;2022-10-19T01:09:23;16.20;75.70
66928;DHT22;59882;45.624;11.698;2022-10-19T01:12:14;16.20;75.80
66928;DHT22;59882;45.624;11.698;2022-10-19T01:17:39;16.10;75.90
66928;DHT22;59882;45.624;11.698;2022-10-19T01:20:42;16.00;76.00
66928;DHT22;59882;45.624;11.698;2022-10-19T01:29:03;15.90;76.40
66928;DHT22;59882;45.624;11.698;2022-10-19T01:31:51;15.90;76.50
66928;DHT22;59882;45.624;11.698;2022-10-19T01:39:58;15.80;76.60
66928;DHT22;59882;45.624;11.698;2022-10-19T01:45:16;15.70;76.70
66928;DHT22;59882;45.624;11.698;2022-10-19T01:47:54;15.80;76.80
66928;DHT22;59882;45.624;11.698;2022-10-19T01:50:24;15.80;76.70
66928;DHT22;59882;45.624;11.698;2022-10-19T01:52:52;15.70;76.60
66928;DHT22;59882;45.624;11.698;2022-10-19T01:55:20;15.70;76.50
66928;DHT22;59882;45.624;11.698;2022-10-19T01:57:50;15.70;76.60
66928;DHT22;59882;45.624;11.698;2022-10-19T02:00:18;15.60;76.30
66928;DHT22;59882;45.624;11.698;2022-10-19T02:02:47;15.60;76.60
66928;DHT22;59882;45.624;11.698;2022-10-19T02:05:16;15.60;76.60
66928;DHT22;59882;45.624;11.698;2022-10-19T02:07:45;15.60;76.80
66928;DHT22;59882;45.624;11.698;2022-10-19T02:10:12;15.50;76.90
66928;DHT22;59882;45.624;11.698;2022-10-19T02:12:39;15.50;76.90
66928;DHT22;59882;45.624;11.698;2022-10-19T02:15:10;15.40;76.90
66928;DHT22;59882;45.624;11.698;2022-10-19T02:17:43;15.40;77.20
66928;DHT22;59882;45.624;11.698;2022-10-19T02:20:10;15.40;77.20
66928;DHT22;59882;45.624;11.698;2022-10-19T02:22:36;15.50;77.00
66928;DHT22;59882;45.624;11.698;2022-10-19T02:25:02;15.40;76.80
66928;DHT22;59882;45.624;11.698;2022-10-19T02:27:28;15.40;77.10
66928;DHT22;59882;45.624;11.698;2022-10-19T02:29:54;15.40;77.10
66928;DHT22;59882;45.624;11.698;2022-10-19T02:32:20;15.30;77.30
66928;DHT22;59882;45.624;11.698;2022-10-19T02:34:45;15.30;77.60
66928;DHT22;59882;45.624;11.698;2022-10-19T02:37:11;15.30;77.70
66928;DHT22;59882;45.624;11.698;2022-10-19T02:39:38;15.20;77.80
66928;DHT22;59882;45.624;11.698;2022-10-19T02:44:59;15.20;77.90
66928;DHT22;59882;45.624;11.698;2022-10-19T02:47:30;15.20;77.80
66928;DHT22;59882;45.624;11.698;2022-10-19T02:49:58;15.30;77.80
66928;DHT22;59882;45.624;11.698;2022-10-19T02:52:24;15.20;77.70
66928;DHT22;59882;45.624;11.698;2022-10-19T02:54:50;15.20;77.80
66928;DHT22;59882;45.624;11.698;2022-10-19T02:57:21;15.20;77.40
66928;DHT22;59882;45.624;11.698;2022-10-19T02:59:47;15.30;77.60
66928;DHT22;59882;45.624;11.698;2022-10-19T03:02:14;15.20;77.50
66928;DHT22;59882;45.624;11.698;2022-10-19T03:04:40;15.30;77.40
66928;DHT22;59882;45.624;11.698;2022-10-19T03:07:08;15.30;77.50
66928;DHT22;59882;45.624;11.698;2022-10-19T03:09:34;15.20;77.60
66928;DHT22;59882;45.624;11.698;2022-10-19T03:12:00;15.30;77.50
66928;DHT22;59882;45.624;11.698;2022-10-19T03:14:26;15.20;77.40
66928;DHT22;59882;45.624;11.698;2022-10-19T03:16:51;15.30;77.20
66928;DHT22;59882;45.624;11.698;2022-10-19T03:19:17;15.30;76.90
66928;DHT22;59882;45.624;11.698;2022-10-19T03:21:42;15.30;76.90
66928;DHT22;59882;45.624;11.698;2022-10-19T03:24:09;15.30;76.80
66928;DHT22;59882;45.624;11.698;2022-10-19T03:26:34;15.30;76.80
66928;DHT22;59882;45.624;11.698;2022-10-19T03:29:00;15.20;76.60
66928;DHT22;59882;45.624;11.698;2022-10-19T03:31:26;15.20;76.80
66928;DHT22;59882;45.624;11.698;2022-10-19T03:33:52;15.20;76.80
66928;DHT22;59882;45.624;11.698;2022-10-19T03:36:28;15.20;76.60
66928;DHT22;59882;45.624;11.698;2022-10-19T03:38:56;15.20;76.60
66928;DHT22;59882;45.624;11.698;2022-10-19T03:41:23;15.20;76.40
66928;DHT22;59882;45.624;11.698;2022-10-19T03:43:49;15.20;76.60
66928;DHT22;59882;45.624;11.698;2022-10-19T03:46:15;15.10;76.40
66928;DHT22;59882;45.624;11.698;2022-10-19T03:48:41;15.10;76.80
66928;DHT22;59882;45.624;11.698;2022-10-19T03:51:18;15.10;77.00
66928;DHT22;59882;45.624;11.698;2022-10-19T03:53:46;15.00;76.70
66928;DHT22;59882;45.624;11.698;2022-10-19T03:56:17;14.90;76.60
66928;DHT22;59882;45.624;11.698;2022-10-19T03:58:45;14.90;76.70
66928;DHT22;59882;45.624;11.698;2022-10-19T04:01:13;14.90;76.70
66928;DHT22;59882;45.624;11.698;2022-10-19T04:03:39;14.80;76.90
66928;DHT22;59882;45.624;11.698;2022-10-19T04:06:08;14.80;76.90
66928;DHT22;59882;45.624;11.698;2022-10-19T04:08:34;14.80;77.10
66928;DHT22;59882;45.624;11.698;2022-10-19T04:11:05;14.80;77.10
66928;DHT22;59882;45.624;11.698;2022-10-19T04:13:32;14.80;77.00
66928;DHT22;59882;45.624;11.698;2022-10-19T04:15:58;14.70;77.20
66928;DHT22;59882;45.624;11.698;2022-10-19T04:18:23;14.70;77.40
66928;DHT22;59882;45.624;11.698;2022-10-19T04:20:56;14.70;77.70
66928;DHT22;59882;45.624;11.698;2022-10-19T04:23:22;14.60;77.70
66928;DHT22;59882;45.624;11.698;2022-10-19T04:25:48;14.60;77.60
66928;DHT22;59882;45.624;11.698;2022-10-19T04:28:13;14.60;77.70
66928;DHT22;59882;45.624;11.698;2022-10-19T04:30:39;14.60;77.90
66928;DHT22;59882;45.624;11.698;2022-10-19T04:33:04;14.70;78.00
66928;DHT22;59882;45.624;11.698;2022-10-19T04:35:30;14.70;77.60
66928;DHT22;59882;45.624;11.698;2022-10-19T04:37:57;14.70;77.70
66928;DHT22;59882;45.624;11.698;2022-10-19T04:40:24;14.70;77.60
66928;DHT22;59882;45.624;11.698;2022-10-19T04:42:49;14.70;77.50
66928;DHT22;59882;45.624;11.698;2022-10-19T04:45:15;14.70;77.40
66928;DHT22;59882;45.624;11.698;2022-10-19T04:47:41;14.70;77.30
66928;DHT22;59882;45.624;11.698;2022-10-19T04:50:07;14.70;77.40
66928;DHT22;59882;45.624;11.698;2022-10-19T04:52:32;14.70;77.50
66928;DHT22;59882;45.624;11.698;2022-10-19T04:54:59;14.70;77.60
66928;DHT22;59882;45.624;11.698;2022-10-19T04:57:25;14.70;77.20
66928;DHT22;59882;45.624;11.698;2022-10-19T04:59:51;14.70;77.10
66928;DHT22;59882;45.624;11.698;2022-10-19T05:02:16;14.70;77.10
66928;DHT22;59882;45.624;11.698;2022-10-19T05:04:42;14.70;77.20
66928;DHT22;59882;45.624;11.698;2022-10-19T05:07:08;14.70;77.10
66928;DHT22;59882;45.624;11.698;2022-10-19T05:09:33;14.70;77.00
66928;DHT22;59882;45.624;11.698;2022-10-19T05:11:59;14.70;77.10
66928;DHT22;59882;45.624;11.698;2022-10-19T05:14:25;14.60;77.00
66928;DHT22;59882;45.624;11.698;2022-10-19T05:16:50;14.60;77.00
66928;DHT22;59882;45.624;11.698;2022-10-19T05:19:16;14.60;77.00
66928;DHT22;59882;45.624;11.698;2022-10-19T05:21:41;14.60;76.70
66928;DHT22;59882;45.624;11.698;2022-10-19T05:24:11;14.60;76.60
66928;DHT22;59882;45.624;11.698;2022-10-19T05:26:37;14.60;76.70
66928;DHT22;59882;45.624;11.698;2022-10-19T05:29:03;14.50;76.70
66928;DHT22;59882;45.624;11.698;2022-10-19T05:31:32;14.50;77.00
66928;DHT22;59882;45.624;11.698;2022-10-19T05:33:59;14.50;77.20
66928;DHT22;59882;45.624;11.698;2022-10-19T05:36:30;14.40;77.60
66928;DHT22;59882;45.624;11.698;2022-10-19T05:39:01;14.40;77.60
66928;DHT22;59882;45.624;11.698;2022-10-19T05:41:27;14.40;77.80
66928;DHT22;59882;45.624;11.698;2022-10-19T05:43:58;14.40;77.70
66928;DHT22;59882;45.624;11.698;2022-10-19T05:46:25;14.30;77.60
66928;DHT22;59882;45.624;11.698;2022-10-19T05:48:53;14.30;77.60
66928;DHT22;59882;45.624;11.698;2022-10-19T05:51:20;14.30;77.40
66928;DHT22;59882;45.624;11.698;2022-10-19T05:53:46;14.30;77.40
66928;DHT22;59882;45.624;11.698;2022-10-19T05:56:18;14.30;77.70
66928;DHT22;59882;45.624;11.698;2022-10-19T05:58:44;14.30;77.80
66928;DHT22;59882;45.624;11.698;2022-10-19T06:01:11;14.40;77.60
66928;DHT22;59882;45.624;11.698;2022-10-19T06:03:37;14.30;77.80
66928;DHT22;59882;45.624;11.698;2022-10-19T06:06:03;14.40;77.80
66928;DHT22;59882;45.624;11.698;2022-10-19T06:08:29;14.30;77.90
66928;DHT22;59882;45.624;11.698;2022-10-19T06:13:29;14.40;77.70
66928;DHT22;59882;45.624;11.698;2022-10-19T06:15:55;14.40;77.60
66928;DHT22;59882;45.624;11.698;2022-10-19T06:18:20;14.40;77.50
66928;DHT22;59882;45.624;11.698;2022-10-19T06:20:50;14.40;77.50
66928;DHT22;59882;45.624;11.698;2022-10-19T06:23:16;14.50;77.40
66928;DHT22;59882;45.624;11.698;2022-10-19T06:25:41;14.50;77.50
66928;DHT22;59882;45.624;11.698;2022-10-19T06:28:07;14.50;77.60
66928;DHT22;59882;45.624;11.698;2022-10-19T06:30:33;14.50;77.70
66928;DHT22;59882;45.624;11.698;2022-10-19T06:33:02;14.50;78.00
66928;DHT22;59882;45.624;11.698;2022-10-19T06:35:28;14.60;77.90
66928;DHT22;59882;45.624;11.698;2022-10-19T06:37:55;14.60;77.80
66928;DHT22;59882;45.624;11.698;2022-10-19T06:40:21;14.60;77.70
66928;DHT22;59882;45.624;11.698;2022-10-19T06:42:47;14.70;77.60
66928;DHT22;59882;45.624;11.698;2022-10-19T06:45:12;14.70;77.60
66928;DHT22;59882;45.624;11.698;2022-10-19T06:47:38;14.80;77.60
66928;DHT22;59882;45.624;11.698;2022-10-19T06:50:04;14.80;77.50
66928;DHT22;59882;45.624;11.698;2022-10-19T06:52:31;14.90;77.60
66928;DHT22;59882;45.624;11.698;2022-10-19T06:54:57;14.90;77.90
66928;DHT22;59882;45.624;11.698;2022-10-19T06:57:23;15.00;77.70
66928;DHT22;59882;45.624;11.698;2022-10-19T06:59:48;15.10;77.50
66928;DHT22;59882;45.624;11.698;2022-10-19T07:02:15;15.10;77.80
66928;DHT22;59882;45.624;11.698;2022-10-19T07:04:40;15.10;77.80
66928;DHT22;59882;45.624;11.698;2022-10-19T07:07:06;15.10;77.70
66928;DHT22;59882;45.624;11.698;2022-10-19T07:09:32;15.20;77.90
66928;DHT22;59882;45.624;11.698;2022-10-19T07:11:57;15.20;77.90
66928;DHT22;59882;45.624;11.698;2022-10-19T07:14:23;15.20;77.90
66928;DHT22;59882;45.624;11.698;2022-10-19T07:16:50;15.30;78.40
66928;DHT22;59882;45.624;11.698;2022-10-19T07:19:16;15.30;78.20
66928;DHT22;59882;45.624;11.698;2022-10-19T07:21:41;15.40;78.40
66928;DHT22;59882;45.624;11.698;2022-10-19T07:24:08;15.40;78.00
66928;DHT22;59882;45.624;11.698;2022-10-19T07:26:34;15.40;78.50
66928;DHT22;59882;45.624;11.698;2022-10-19T07:29:01;15.50;79.10
66928;DHT22;59882;45.624;11.698;2022-10-19T07:31:28;15.50;79.40
66928;DHT22;59882;45.624;11.698;2022-10-19T07:33:59;15.60;79.20
66928;DHT22;59882;45.624;11.698;2022-10-19T07:36:26;15.60;79.10
66928;DHT22;59882;45.624;11.698;2022-10-19T07:38:53;15.60;78.80
66928;DHT22;59882;45.624;11.698;2022-10-19T07:41:21;15.70;79.00
66928;DHT22;59882;45.624;11.698;2022-10-19T07:43:48;15.70;78.80
66928;DHT22;59882;45.624;11.698;2022-10-19T07:46:21;15.80;79.20
66928;DHT22;59882;45.624;11.698;2022-10-19T07:48:47;15.80;79.30
66928;DHT22;59882;45.624;11.698;2022-10-19T07:51:14;15.90;80.00
66928;DHT22;59882;45.624;11.698;2022-10-19T07:53:41;16.00;80.50
66928;DHT22;59882;45.624;11.698;2022-10-19T07:56:08;16.00;80.60
66928;DHT22;59882;45.624;11.698;2022-10-19T07:58:35;16.00;80.90
66928;DHT22;59882;45.624;11.698;2022-10-19T08:01:05;16.10;80.40
66928;DHT22;59882;45.624;11.698;2022-10-19T08:03:32;16.20;80.00
66928;DHT22;59882;45.624;11.698;2022-10-19T08:06:04;16.20;79.90
66928;DHT22;59882;45.624;11.698;2022-10-19T08:08:30;16.30;80.20
66928;DHT22;59882;45.624;11.698;2022-10-19T08:10:56;16.40;80.60
66928;DHT22;59882;45.624;11.698;2022-10-19T08:13:21;16.40;80.60
66928;DHT22;59882;45.624;11.698;2022-10-19T08:15:47;16.50;80.00
66928;DHT22;59882;45.624;11.698;2022-10-19T08:18:13;16.60;79.10
66928;DHT22;59882;45.624;11.698;2022-10-19T08:20:42;16.60;79.70
66928;DHT22;59882;45.624;11.698;2022-10-19T08:23:08;16.70;80.40
66928;DHT22;59882;45.624;11.698;2022-10-19T08:25:34;16.80;79.70
66928;DHT22;59882;45.624;11.698;2022-10-19T08:28:01;16.80;79.20
66928;DHT22;59882;45.624;11.698;2022-10-19T08:30:27;16.90;78.70
66928;DHT22;59882;45.624;11.698;2022-10-19T08:32:53;16.90;79.00
66928;DHT22;59882;45.624;11.698;2022-10-19T08:35:18;17.00;78.70
66928;DHT22;59882;45.624;11.698;2022-10-19T08:37:44;17.10;78.40
66928;DHT22;59882;45.624;11.698;2022-10-19T08:40:22;17.20;78.30
66928;DHT22;59882;45.624;11.698;2022-10-19T08:43:05;17.20;77.90
66928;DHT22;59882;45.624;11.698;2022-10-19T08:48:24;17.40;77.30
66928;DHT22;59882;45.624;11.698;2022-10-19T08:50:50;17.50;77.20
66928;DHT22;59882;45.624;11.698;2022-10-19T08:56:28;17.60;75.80
66928;DHT22;59882;45.624;11.698;2022-10-19T09:02:27;17.80;73.50
66928;DHT22;59882;45.624;11.698;2022-10-19T09:05:02;17.90;73.00
66928;DHT22;59882;45.624;11.698;2022-10-19T09:07:32;17.90;72.50
66928;DHT22;59882;45.624;11.698;2022-10-19T09:10:02;18.00;72.30
66928;DHT22;59882;45.624;11.698;2022-10-19T09:12:52;18.10;72.40
66928;DHT22;59882;45.624;11.698;2022-10-19T09:18:32;18.30;71.50
66928;DHT22;59882;45.624;11.698;2022-10-19T09:26:28;18.50;72.10
66928;DHT22;59882;45.624;11.698;2022-10-19T09:31:36;18.70;71.80
66928;DHT22;59882;45.624;11.698;2022-10-19T09:34:14;18.80;71.60
66928;DHT22;59882;45.624;11.698;2022-10-19T09:36:44;18.90;71.30
66928;DHT22;59882;45.624;11.698;2022-10-19T09:39:11;19.00;70.60
66928;DHT22;59882;45.624;11.698;2022-10-19T09:41:46;19.10;70.80
66928;DHT22;59882;45.624;11.698;2022-10-19T09:44:14;19.10;70.10
66928;DHT22;59882;45.624;11.698;2022-10-19T09:46:47;19.20;70.40
66928;DHT22;59882;45.624;11.698;2022-10-19T09:49:17;19.30;70.30
66928;DHT22;59882;45.624;11.698;2022-10-19T09:51:47;19.40;70.10
66928;DHT22;59882;45.624;11.698;2022-10-19T09:54:24;19.40;70.10
66928;DHT22;59882;45.624;11.698;2022-10-19T09:56:54;19.50;69.70
66928;DHT22;59882;45.624;11.698;2022-10-19T09:59:22;19.60;70.10
66928;DHT22;59882;45.624;11.698;2022-10-19T10:02:08;19.70;70.00
66928;DHT22;59882;45.624;11.698;2022-10-19T10:04:36;19.80;69.80
66928;DHT22;59882;45.624;11.698;2022-10-19T10:07:02;19.80;69.20
66928;DHT22;59882;45.624;11.698;2022-10-19T10:09:28;19.90;69.20
66928;DHT22;59882;45.624;11.698;2022-10-19T10:11:57;19.90;68.60
66928;DHT22;59882;45.624;11.698;2022-10-19T10:14:29;20.10;68.70
66928;DHT22;59882;45.624;11.698;2022-10-19T10:17:01;20.10;68.70
66928;DHT22;59882;45.624;11.698;2022-10-19T10:19:29;20.10;68.30
66928;DHT22;59882;45.624;11.698;2022-10-19T10:21:56;20.30;69.10
66928;DHT22;59882;45.624;11.698;2022-10-19T10:24:25;20.30;68.10
66928;DHT22;59882;45.624;11.698;2022-10-19T10:26:54;20.40;67.70
66928;DHT22;59882;45.624;11.698;2022-10-19T10:29:25;20.40;67.80
66928;DHT22;59882;45.624;11.698;2022-10-19T10:31:57;20.50;67.30
66928;DHT22;59882;45.624;11.698;2022-10-19T10:36:56;20.70;66.30
66928;DHT22;59882;45.624;11.698;2022-10-19T10:39:22;20.80;66.30
66928;DHT22;59882;45.624;11.698;2022-10-19T10:41:51;20.90;65.60
66928;DHT22;59882;45.624;11.698;2022-10-19T10:44:21;20.90;64.50
66928;DHT22;59882;45.624;11.698;2022-10-19T10:46:54;20.90;64.30
66928;DHT22;59882;45.624;11.698;2022-10-19T10:49:27;21.00;64.70
66928;DHT22;59882;45.624;11.698;2022-10-19T10:52:00;21.10;64.60
66928;DHT22;59882;45.624;11.698;2022-10-19T10:54:30;21.20;64.20
66928;DHT22;59882;45.624;11.698;2022-10-19T10:57:13;21.20;64.00
66928;DHT22;59882;45.624;11.698;2022-10-19T11:00:08;21.40;63.30
66928;DHT22;59882;45.624;11.698;2022-10-19T11:05:25;21.50;61.70
66928;DHT22;59882;45.624;11.698;2022-10-19T11:07:57;21.60;62.50
66928;DHT22;59882;45.624;11.698;2022-10-19T11:10:44;21.70;62.60
66928;DHT22;59882;45.624;11.698;2022-10-19T11:13:31;21.90;62.60
66928;DHT22;59882;45.624;11.698;2022-10-19T11:18:52;22.00;62.40
66928;DHT22;59882;45.624;11.698;2022-10-19T11:29:48;22.40;60.10
66928;DHT22;59882;45.624;11.698;2022-10-19T11:35:58;22.70;60.20
66928;DHT22;59882;45.624;11.698;2022-10-19T11:41:38;22.90;59.40
66928;DHT22;59882;45.624;11.698;2022-10-19T11:55:21;23.70;55.80
66928;DHT22;59882;45.624;11.698;2022-10-19T12:10:04;26.00;51.00
66928;DHT22;59882;45.624;11.698;2022-10-19T12:12:44;28.60;46.00
66928;DHT22;59882;45.624;11.698;2022-10-19T12:17:44;32.90;37.80
66928;DHT22;59882;45.624;11.698;2022-10-19T12:20:36;34.60;36.40
66928;DHT22;59882;45.624;11.698;2022-10-19T12:25:44;37.30;29.70
66928;DHT22;59882;45.624;11.698;2022-10-19T12:28:20;38.30;32.30
66928;DHT22;59882;45.624;11.698;2022-10-19T12:30:47;39.20;28.10
66928;DHT22;59882;45.624;11.698;2022-10-19T12:33:30;39.80;28.30
66928;DHT22;59882;45.624;11.698;2022-10-19T12:36:14;40.50;26.20
66928;DHT22;59882;45.624;11.698;2022-10-19T12:47:18;42.10;22.70
66928;DHT22;59882;45.624;11.698;2022-10-19T12:49:51;42.40;23.00
66928;DHT22;59882;45.624;11.698;2022-10-19T12:52:57;42.50;22.90
66928;DHT22;59882;45.624;11.698;2022-10-19T12:55:26;42.50;23.20
66928;DHT22;59882;45.624;11.698;2022-10-19T12:58:05;42.50;22.60
66928;DHT22;59882;45.624;11.698;2022-10-19T13:00:40;42.50;24.50
66928;DHT22;59882;45.624;11.698;2022-10-19T13:03:21;42.50;24.30
66928;DHT22;59882;45.624;11.698;2022-10-19T13:06:01;42.50;23.20
66928;DHT22;59882;45.624;11.698;2022-10-19T13:08:39;42.50;23.40
66928;DHT22;59882;45.624;11.698;2022-10-19T13:11:10;42.40;24.00
66928;DHT22;59882;45.624;11.698;2022-10-19T13:14:11;42.40;23.80
66928;DHT22;59882;45.624;11.698;2022-10-19T13:16:59;42.30;24.00
66928;DHT22;59882;45.624;11.698;2022-10-19T13:19:25;42.30;24.00
66928;DHT22;59882;45.624;11.698;2022-10-19T13:21:53;42.30;24.20
66928;DHT22;59882;45.624;11.698;2022-10-19T13:24:29;42.20;23.70
66928;DHT22;59882;45.624;11.698;2022-10-19T13:38:09;41.80;22.40
66928;DHT22;59882;45.624;11.698;2022-10-19T13:40:37;41.70;22.90
66928;DHT22;59882;45.624;11.698;2022-10-19T13:43:04;41.70;22.10
66928;DHT22;59882;45.624;11.698;2022-10-19T13:45:40;41.70;22.40
66928;DHT22;59882;45.624;11.698;2022-10-19T13:48:17;41.70;21.40
66928;DHT22;59882;45.624;11.698;2022-10-19T13:50:56;41.70;22.50
66928;DHT22;59882;45.624;11.698;2022-10-19T13:53:33;41.70;21.10
66928;DHT22;59882;45.624;11.698;2022-10-19T13:56:29;41.60;21.00
66928;DHT22;59882;45.624;11.698;2022-10-19T14:00:43;41.50;21.80
66928;DHT22;59882;45.624;11.698;2022-10-19T14:10:59;39.90;22.50
66928;DHT22;59882;45.624;11.698;2022-10-19T14:13:25;38.80;22.20
66928;DHT22;59882;45.624;11.698;2022-10-19T14:15:53;37.70;23.60
66928;DHT22;59882;45.624;11.698;2022-10-19T14:18:31;36.80;24.60
66928;DHT22;59882;45.624;11.698;2022-10-19T14:21:02;35.90;25.30
66928;DHT22;59882;45.624;11.698;2022-10-19T14:23:30;35.00;26.10
66928;DHT22;59882;45.624;11.698;2022-10-19T14:28:25;33.50;28.00
66928;DHT22;59882;45.624;11.698;2022-10-19T14:33:21;32.40;30.60
66928;DHT22;59882;45.624;11.698;2022-10-19T14:35:50;31.90;30.90
66928;DHT22;59882;45.624;11.698;2022-10-19T14:38:31;31.40;31.80
66928;DHT22;59882;45.624;11.698;2022-10-19T14:40:59;31.00;32.20
66928;DHT22;59882;45.624;11.698;2022-10-19T14:43:28;30.80;32.90
66928;DHT22;59882;45.624;11.698;2022-10-19T14:46:14;30.40;34.00
66928;DHT22;59882;45.624;11.698;2022-10-19T14:48:45;30.10;34.20
66928;DHT22;59882;45.624;11.698;2022-10-19T14:56:33;29.40;35.90
66928;DHT22;59882;45.624;11.698;2022-10-19T14:59:04;29.10;36.60
66928;DHT22;59882;45.624;11.698;2022-10-19T15:01:30;28.90;36.90
66928;DHT22;59882;45.624;11.698;2022-10-19T15:03:56;28.90;37.00
66928;DHT22;59882;45.624;11.698;2022-10-19T15:06:28;28.80;37.30
66928;DHT22;59882;45.624;11.698;2022-10-19T15:08:59;28.70;37.60
66928;DHT22;59882;45.624;11.698;2022-10-19T15:11:39;28.60;38.50
66928;DHT22;59882;45.624;11.698;2022-10-19T15:14:19;28.50;38.80
66928;DHT22;59882;45.624;11.698;2022-10-19T15:16:57;28.40;39.00
66928;DHT22;59882;45.624;11.698;2022-10-19T15:22:17;28.10;39.40
66928;DHT22;59882;45.624;11.698;2022-10-19T15:27:27;27.90;38.80
66928;DHT22;59882;45.624;11.698;2022-10-19T15:30:30;27.70;38.90
66928;DHT22;59882;45.624;11.698;2022-10-19T15:40:34;28.00;39.90
66928;DHT22;59882;45.624;11.698;2022-10-19T15:48:52;28.20;40.30
66928;DHT22;59882;45.624;11.698;2022-10-19T15:53:52;28.00;40.70
66928;DHT22;59882;45.624;11.698;2022-10-19T15:56:19;27.80;41.00
66928;DHT22;59882;45.624;11.698;2022-10-19T15:58:48;27.60;41.30
66928;DHT22;59882;45.624;11.698;2022-10-19T16:01:19;27.40;41.60
66928;DHT22;59882;45.624;11.698;2022-10-19T16:03:47;27.20;41.90
66928;DHT22;59882;45.624;11.698;2022-10-19T16:06:13;27.10;42.20
66928;DHT22;59882;45.624;11.698;2022-10-19T16:08:39;26.90;42.50
66928;DHT22;59882;45.624;11.698;2022-10-19T16:11:11;26.70;43.00
66928;DHT22;59882;45.624;11.698;2022-10-19T16:13:37;26.50;43.50
66928;DHT22;59882;45.624;11.698;2022-10-19T16:16:07;26.30;43.80
66928;DHT22;59882;45.624;11.698;2022-10-19T16:18:34;26.10;44.20
66928;DHT22;59882;45.624;11.698;2022-10-19T16:20:59;26.00;44.60
66928;DHT22;59882;45.624;11.698;2022-10-19T16:23:26;25.80;45.00
66928;DHT22;59882;45.624;11.698;2022-10-19T16:25:52;25.60;45.90
66928;DHT22;59882;45.624;11.698;2022-10-19T16:28:18;25.40;46.90
66928;DHT22;59882;45.624;11.698;2022-10-19T16:30:44;25.30;47.10
66928;DHT22;59882;45.624;11.698;2022-10-19T16:33:15;25.10;46.70
66928;DHT22;59882;45.624;11.698;2022-10-19T16:35:40;24.90;47.00
66928;DHT22;59882;45.624;11.698;2022-10-19T16:38:06;24.80;47.50
66928;DHT22;59882;45.624;11.698;2022-10-19T16:40:32;24.70;47.80
66928;DHT22;59882;45.624;11.698;2022-10-19T16:42:57;24.60;49.10
66928;DHT22;59882;45.624;11.698;2022-10-19T16:45:26;24.50;48.60
66928;DHT22;59882;45.624;11.698;2022-10-19T16:47:51;24.40;49.50
66928;DHT22;59882;45.624;11.698;2022-10-19T16:50:17;24.20;49.60
66928;DHT22;59882;45.624;11.698;2022-10-19T16:52:43;24.10;50.70
66928;DHT22;59882;45.624;11.698;2022-10-19T16:55:08;24.00;51.30
66928;DHT22;59882;45.624;11.698;2022-10-19T16:57:34;23.90;51.80
66928;DHT22;59882;45.624;11.698;2022-10-19T17:00:00;23.80;51.90
66928;DHT22;59882;45.624;11.698;2022-10-19T17:02:25;23.60;52.80
66928;DHT22;59882;45.624;11.698;2022-10-19T17:04:51;23.50;53.50
66928;DHT22;59882;45.624;11.698;2022-10-19T17:07:17;23.40;53.60
66928;DHT22;59882;45.624;11.698;2022-10-19T17:09:43;23.30;52.90
66928;DHT22;59882;45.624;11.698;2022-10-19T17:12:09;23.30;53.30
66928;DHT22;59882;45.624;11.698;2022-10-19T17:14:38;23.20;55.10
66928;DHT22;59882;45.624;11.698;2022-10-19T17:17:04;23.10;54.20
66928;DHT22;59882;45.624;11.698;2022-10-19T17:19:29;22.90;54.00
66928;DHT22;59882;45.624;11.698;2022-10-19T17:21:55;22.90;54.60
66928;DHT22;59882;45.624;11.698;2022-10-19T17:24:22;22.90;54.80
66928;DHT22;59882;45.624;11.698;2022-10-19T17:26:49;22.80;55.50
66928;DHT22;59882;45.624;11.698;2022-10-19T17:29:15;22.80;56.00
66928;DHT22;59882;45.624;11.698;2022-10-19T17:31:41;22.70;55.90
66928;DHT22;59882;45.624;11.698;2022-10-19T17:34:08;22.60;55.80
66928;DHT22;59882;45.624;11.698;2022-10-19T17:36:36;22.60;57.10
66928;DHT22;59882;45.624;11.698;2022-10-19T17:39:06;22.50;57.30
66928;DHT22;59882;45.624;11.698;2022-10-19T17:41:32;22.40;56.40
66928;DHT22;59882;45.624;11.698;2022-10-19T17:43:58;22.40;56.90
66928;DHT22;59882;45.624;11.698;2022-10-19T17:46:26;22.30;57.80
66928;DHT22;59882;45.624;11.698;2022-10-19T17:48:52;22.20;58.10
66928;DHT22;59882;45.624;11.698;2022-10-19T17:51:20;22.10;58.70
66928;DHT22;59882;45.624;11.698;2022-10-19T17:53:48;22.10;59.20
66928;DHT22;59882;45.624;11.698;2022-10-19T17:56:17;21.90;59.40
66928;DHT22;59882;45.624;11.698;2022-10-19T17:58:43;21.90;60.40
66928;DHT22;59882;45.624;11.698;2022-10-19T18:01:09;21.70;61.30
66928;DHT22;59882;45.624;11.698;2022-10-19T18:03:37;21.60;62.00
66928;DHT22;59882;45.624;11.698;2022-10-19T18:06:04;21.50;62.20